OITM  Sahand  Airport

Maragheh, Iran

Add Bookmark
ICAO OITM
IATA ACP
Type Airport
Status Operational
Latitude
37° 20' 52" N
37.348000
Longitude
46° 7' 40" E
46.127899
Local (GMT +4.5 ) UTC
May 1, 2016 12:32 pm May 1, 2016 08:02
Sunrise-Sunset Local UTC
Begin Civil Twilight 06:00 am 01:30
Sunrise 06:28 am 01:58
Sunset 08:16 pm 15:46
End Civil Twilight 08:44 pm 16:14
VFR
VFR
MVFR
MVFR
IFR
IFR
LIFR
LIFR
Unknown
Unavailable

Current Weather

METAR Observed VFR
OITM 010700Z 23006KT 9999 FEW035 SCT190 19/M01 Q1017 Sun, May 1, 2016 @ 07:00 UTC
(1 Hour, 2 Minutes ago)
Visual Flight Rules
Wind Visibility Clouds Conditions
230° at 6 knots (11 kph) 10 km or more
  • Few at 3,500 ft AGL
  • Scattered at 19,000 ft AGL
  • No significant weather
Temperatures Readings Precipitation
Current Temp
19°C
66°F
Dewpoint
-1°C
30°F
Humidity 26%
Altimeter 30.03" Hg
Sea Level Pressure 1,017 mb
Field Elevation
1,340 m
4,396 ft
None Recorded
-
-

CheckWX.com is intended as a tool to help pilots better visualize weather data. It is not intended as a substitute for an official weather briefing obtained from a Flight Service Station. CheckWX.com does not meet the FAA requirements for an official pre-flight weather briefing. Therefore, it's important that pilots still call and obtain an official FSS pre-flight weather briefing.

© 2007-2016 CheckWX.com
08:02:13 UTC